Saint Louis, Missouri
Traffic Map
Current Weather Conditions
Saint Louis, Missouri
Clear
Clear
84°
Feels Like: 93°
Wind Chill: 84° Ceiling: Unl
Heat Index: 93° Visibility: 10mi
Dew Point: 76° Wind: 10mph
Humidity: 76% Direction: 320° (NW)
Pressure: 30in Gusts: 0mph
Raw Report DataKCPS 291253Z 32009KT 10SM CLR 29/24 A3000 RMK AO2 SLP155 T02890244
Traffic Incident Summary
Active as of:
Severity:
Category:
InformationThere was an issue retrieving the traffic information for this location. Please try a different location or try again shortly.
Advertisements
Track Severe Weather on mobile